• Join FlightAware (Why Join?)
  • Login
  • US Flag 
07:02AM EDT


 

Airport Tracker/Info


-or-


 

Live Flight TrackerFlight Track Log ✈ C-GONN ✈ 28-Jun-2013 ✈ CYYZ - CYAM

Flight Track Log - Related Links

Times and Time Zones

All times are in EDT time to prevent confusion due to time zone crossing. See the C-GONN flight status page for this flight to view local times or setup timezone preferences in your user account.

Time Position Orientation Groundspeed Altitude Reporting Facility
EDT Latitude Longitude Course Direction KTS MPH feet Rate Location/Type
06:56PM 43.6667 -79.6167 360° North 10 12 500  Level Toronto Center
06:59PM 43.7273 -79.7409 313° West  Level FlightAware Approximate
06:59PM 43.6833 -79.6167 313° West 20 23 500  Level Toronto Center
07:00PM 43.6667 -79.6333 216° Southwest 20 23 500  Level Toronto Center
07:02PM 43.6667 -79.6333 216° Southwest 20 23 500  Level Toronto Center
07:03PM 43.6667 -79.6333 216° Southwest 10 12 500  Level Toronto Center
07:07PM 43.6667 -79.6333 216° Southwest 40 46 500 240 Level Toronto Center
07:08PM 43.7000 -79.6333 360° North 120 138 1,700 1,020 Climbing Toronto Center
07:09PM 43.7333 -79.6833 313° West 160 184 2,600 1,080 Climbing Toronto Center
07:10PM 43.7667 -79.7333 313° West 160 184 3,900 1,200 Climbing Toronto Center
07:11PM 43.7833 -79.7667 305° West 170 196 5,000 1,140 Climbing Toronto Center
07:12PM 43.8000 -79.8333 289° West 170 196 6,200 960 Climbing Toronto Center
07:13PM 43.8000 -79.9167 270° West 170 196 7,000 480 Climbing Toronto Center
07:14PM 43.8167 -79.9833 289° West 210 242 7,200 480 Climbing Toronto Center
07:15PM 43.8500 -80.0500 305° West 210 242 8,000 360 Climbing Toronto Center
07:16PM 43.8833 -80.1167 305° West 220 253 8,000 180 Level Toronto Center
07:17PM 43.9333 -80.1833 316° Northwest 220 253 8,400 540 Climbing Toronto Center
07:18PM 43.9667 -80.2500 305° West 220 253 9,100 780 Climbing Toronto Center
07:19PM 44.0000 -80.3333 299° West 210 242 10,000 900 Climbing Toronto Center
07:20PM 44.0167 -80.3667 305° West 210 242 10,900 840 Climbing Toronto Center
07:21PM 44.0500 -80.4500 299° West 210 242 11,700 840 Climbing Toronto Center
07:22PM 44.0833 -80.5167 305° West 210 242 12,600 900 Climbing Toronto Center
07:23PM 44.1167 -80.5833 305° West 210 242 13,500 780 Climbing Toronto Center
07:24PM 44.1500 -80.6500 305° West 210 242 14,200 720 Climbing Toronto Center
07:25PM 44.2000 -80.7000 324° Northwest 210 242 15,000 780 Climbing Toronto Center
07:26PM 44.2333 -80.7667 305° West 210 242 15,800 780 Climbing Toronto Center
07:27PM 44.2667 -80.8167 313° West 200 230 16,600 600 Climbing Toronto Center
07:28PM 44.3000 -80.8833 305° West 200 230 17,100 540 Climbing Toronto Center
07:29PM 44.3333 -80.9333 313° West 210 242 17,700 840 Climbing Toronto Center
07:30PM 44.3833 -81.0167 310° West 210 242 18,800 840 Climbing Toronto Center
07:31PM 44.4167 -81.0500 324° Northwest 210 242 19,400 600 Climbing Toronto Center
07:32PM 44.4500 -81.1333 299° West 200 230 20,000 540 Climbing Toronto Center
07:33PM 44.4833 -81.1833 313° West 200 230 20,500 420 Climbing Toronto Center
07:34PM 44.5333 -81.2167 335° Northwest 210 242 20,900 420 Climbing Toronto Center
07:35PM 44.5667 -81.3000 299° West 210 242 21,400 480 Climbing Toronto Center
07:36PM 44.6000 -81.3667 305° West 200 230 21,900 300 Climbing Toronto Center
07:37PM 44.6500 -81.4167 325° Northwest 210 242 22,000  Climbing Toronto Center
07:38PM 44.6833 -81.4833 305° West 220 253 22,000  Level Toronto Center
07:39PM 44.7333 -81.5500 317° Northwest 230 265 22,000  Level Toronto Center
07:40PM 44.7833 -81.6333 310° West 240 276 22,000  Level Toronto Center
07:41PM 44.8167 -81.6833 313° West 240 276 22,000  Level Toronto Center
07:42PM 44.8667 -81.7667 310° West 240 276 22,000  Level Toronto Center
07:43PM 44.9167 -81.8167 325° Northwest 240 276 22,000  Level Toronto Center
07:44PM 44.9667 -81.9000 310° West 240 276 22,000  Level Toronto Center
07:45PM 45.0000 -81.9667 305° West 250 288 22,000  Level Toronto Center
07:46PM 45.0333 -82.0333 305° West 250 288 22,000  Level Toronto Center
07:47PM 45.0833 -82.1167 310° West 240 276 22,000  Level Toronto Center
07:48PM 45.1333 -82.1833 317° Northwest 240 276 22,000  Level Toronto Center
07:49PM 45.1833 -82.2667 310° West 240 276 22,000  Level Toronto Center
07:50PM 45.2167 -82.3333 305° West 240 276 22,000  Level Toronto Center
07:51PM 45.2667 -82.4000 317° Northwest 240 276 22,000  Level Toronto Center
07:52PM 45.3167 -82.4833 310° West 240 276 22,000  Level Toronto Center
07:53PM 45.3667 -82.5500 317° Northwest 240 276 22,000  Level Toronto Center
07:54PM 45.4167 -82.6333 311° West 250 288 22,000  Level Toronto Center
07:55PM 45.4500 -82.7000 305° West 250 288 22,000  Level Toronto Center
07:56PM 45.4833 -82.7667 306° West 250 288 22,000  Level Toronto Center
07:57PM 45.5333 -82.8500 311° West 250 288 22,000  Level Toronto Center
07:58PM 45.5833 -82.9167 317° Northwest 260 299 22,000  Level Toronto Center
07:59PM 45.6333 -83.0167 306° West 260 299 22,000  Level Toronto Center
08:00PM 45.6833 -83.1000 311° West 260 299 22,000  Level Toronto Center
08:01PM 45.7333 -83.1667 317° Northwest 260 299 22,000  Level Toronto Center
08:02PM 45.7833 -83.2500 311° West 260 299 22,000  Level Toronto Center
08:03PM 45.8167 -83.3167 306° West 260 299 22,000 -180 Level Toronto Center
08:04PM 45.8667 -83.4000 311° West 260 299 21,700 -960 Descending Toronto Center
08:05PM 45.9167 -83.4833 311° West 290 334 20,100 -1,740 Descending Toronto Center
08:06PM 45.9833 -83.6000 309° West 310 357 18,300 -1,920 Descending Toronto Center
08:07PM 46.0333 -83.6667 317° Northwest 310 357 16,300 -2,100 Descending Toronto Center
08:08PM 46.1000 -83.7667 314° West 310 357 14,200 -1,920 Descending Toronto Center
08:10PM 46.2000 -83.9500 308° West 290 334 10,600 -1,860 Descending Toronto Center
08:11PM 46.2500 -84.0167 317° Northwest 270 311 8,700 -1,800 Descending Toronto Center
08:12PM 46.3000 -84.1000 311° West 260 299 7,100 -1,620 Descending Toronto Center
08:13PM 46.3500 -84.1667 317° Northwest 260 299 5,500 -1,500 Descending Toronto Center
08:14PM 46.3667 -84.2667 284° West 250 288 4,200 -1,260 Descending Toronto Center
08:15PM 46.4000 -84.3500 300° West 240 276 3,000 -1,200 Descending Toronto Center